sensor_id;sensor_type;location;lat;lon;timestamp;P1;durP1;ratioP1;P2;durP2;ratioP2
76495;SDS011;65329;52.544;4.662;2023-04-15T00:00:56;8.88;;;4.60;;
76495;SDS011;65329;52.544;4.662;2023-04-15T00:03:24;5.20;;;4.70;;
76495;SDS011;65329;52.544;4.662;2023-04-15T00:05:51;6.75;;;4.57;;
76495;SDS011;65329;52.544;4.662;2023-04-15T00:08:18;8.60;;;5.10;;
76495;SDS011;65329;52.544;4.662;2023-04-15T00:10:46;8.32;;;5.35;;
76495;SDS011;65329;52.544;4.662;2023-04-15T00:13:13;6.68;;;5.05;;
76495;SDS011;65329;52.544;4.662;2023-04-15T00:15:40;6.70;;;4.28;;
76495;SDS011;65329;52.544;4.662;2023-04-15T00:18:08;6.57;;;5.40;;
76495;SDS011;65329;52.544;4.662;2023-04-15T00:20:35;9.40;;;5.20;;
76495;SDS011;65329;52.544;4.662;2023-04-15T00:23:03;6.82;;;4.85;;
76495;SDS011;65329;52.544;4.662;2023-04-15T00:25:31;8.95;;;5.18;;
76495;SDS011;65329;52.544;4.662;2023-04-15T00:27:58;8.63;;;5.07;;
76495;SDS011;65329;52.544;4.662;2023-04-15T00:30:26;7.15;;;5.13;;
76495;SDS011;65329;52.544;4.662;2023-04-15T00:32:53;11.50;;;5.50;;
76495;SDS011;65329;52.544;4.662;2023-04-15T00:35:21;9.20;;;5.13;;
76495;SDS011;65329;52.544;4.662;2023-04-15T00:37:49;9.40;;;5.82;;
76495;SDS011;65329;52.544;4.662;2023-04-15T00:40:17;6.53;;;4.93;;
76495;SDS011;65329;52.544;4.662;2023-04-15T00:42:46;10.23;;;5.68;;
76495;SDS011;65329;52.544;4.662;2023-04-15T00:45:13;9.23;;;5.43;;
76495;SDS011;65329;52.544;4.662;2023-04-15T00:47:42;7.57;;;5.35;;
76495;SDS011;65329;52.544;4.662;2023-04-15T00:50:10;6.90;;;5.38;;
76495;SDS011;65329;52.544;4.662;2023-04-15T00:52:38;7.70;;;5.38;;
76495;SDS011;65329;52.544;4.662;2023-04-15T00:55:06;7.80;;;4.80;;
76495;SDS011;65329;52.544;4.662;2023-04-15T00:57:34;9.23;;;5.05;;
76495;SDS011;65329;52.544;4.662;2023-04-15T01:00:02;9.18;;;5.43;;
76495;SDS011;65329;52.544;4.662;2023-04-15T01:02:30;9.77;;;5.75;;
76495;SDS011;65329;52.544;4.662;2023-04-15T01:05:00;10.75;;;6.35;;
76495;SDS011;65329;52.544;4.662;2023-04-15T01:07:27;8.63;;;5.78;;
76495;SDS011;65329;52.544;4.662;2023-04-15T01:09:54;7.72;;;5.18;;
76495;SDS011;65329;52.544;4.662;2023-04-15T01:12:21;9.10;;;5.75;;
76495;SDS011;65329;52.544;4.662;2023-04-15T01:14:54;6.82;;;4.97;;
76495;SDS011;65329;52.544;4.662;2023-04-15T01:17:23;9.20;;;6.50;;
76495;SDS011;65329;52.544;4.662;2023-04-15T01:19:51;10.50;;;5.70;;
76495;SDS011;65329;52.544;4.662;2023-04-15T01:22:18;9.55;;;5.45;;
76495;SDS011;65329;52.544;4.662;2023-04-15T01:24:48;6.50;;;4.93;;
76495;SDS011;65329;52.544;4.662;2023-04-15T01:27:29;5.85;;;5.03;;
76495;SDS011;65329;52.544;4.662;2023-04-15T01:29:56;7.70;;;4.47;;
76495;SDS011;65329;52.544;4.662;2023-04-15T01:32:24;8.30;;;5.07;;
76495;SDS011;65329;52.544;4.662;2023-04-15T01:34:51;6.18;;;5.18;;
76495;SDS011;65329;52.544;4.662;2023-04-15T01:37:21;7.80;;;5.15;;
76495;SDS011;65329;52.544;4.662;2023-04-15T01:39:49;7.00;;;5.28;;
76495;SDS011;65329;52.544;4.662;2023-04-15T01:42:16;10.00;;;5.45;;
76495;SDS011;65329;52.544;4.662;2023-04-15T01:44:43;7.22;;;5.32;;
76495;SDS011;65329;52.544;4.662;2023-04-15T01:47:11;7.95;;;5.22;;
76495;SDS011;65329;52.544;4.662;2023-04-15T01:49:38;6.78;;;4.80;;
76495;SDS011;65329;52.544;4.662;2023-04-15T01:52:04;10.02;;;5.45;;
76495;SDS011;65329;52.544;4.662;2023-04-15T01:54:32;7.32;;;5.47;;
76495;SDS011;65329;52.544;4.662;2023-04-15T01:56:58;9.02;;;6.00;;
76495;SDS011;65329;52.544;4.662;2023-04-15T01:59:25;9.25;;;5.35;;
76495;SDS011;65329;52.544;4.662;2023-04-15T02:01:53;5.85;;;4.80;;
76495;SDS011;65329;52.544;4.662;2023-04-15T02:04:20;7.88;;;5.57;;
76495;SDS011;65329;52.544;4.662;2023-04-15T02:06:47;8.27;;;5.32;;
76495;SDS011;65329;52.544;4.662;2023-04-15T02:09:14;7.97;;;6.07;;
76495;SDS011;65329;52.544;4.662;2023-04-15T02:11:44;7.93;;;6.10;;
76495;SDS011;65329;52.544;4.662;2023-04-15T02:14:11;8.60;;;5.38;;
76495;SDS011;65329;52.544;4.662;2023-04-15T02:16:39;10.43;;;6.45;;
76495;SDS011;65329;52.544;4.662;2023-04-15T02:19:06;8.25;;;5.35;;
76495;SDS011;65329;52.544;4.662;2023-04-15T02:21:36;7.15;;;5.35;;
76495;SDS011;65329;52.544;4.662;2023-04-15T02:24:03;7.80;;;5.20;;
76495;SDS011;65329;52.544;4.662;2023-04-15T02:26:31;8.43;;;5.28;;
76495;SDS011;65329;52.544;4.662;2023-04-15T02:28:59;6.95;;;5.18;;
76495;SDS011;65329;52.544;4.662;2023-04-15T02:31:26;5.40;;;4.43;;
76495;SDS011;65329;52.544;4.662;2023-04-15T02:33:53;5.63;;;4.75;;
76495;SDS011;65329;52.544;4.662;2023-04-15T02:36:20;7.10;;;5.43;;
76495;SDS011;65329;52.544;4.662;2023-04-15T02:38:47;9.85;;;5.20;;
76495;SDS011;65329;52.544;4.662;2023-04-15T02:41:15;9.98;;;5.78;;
76495;SDS011;65329;52.544;4.662;2023-04-15T02:43:44;7.57;;;5.10;;
76495;SDS011;65329;52.544;4.662;2023-04-15T02:46:12;9.75;;;6.10;;
76495;SDS011;65329;52.544;4.662;2023-04-15T02:48:40;6.65;;;4.80;;
76495;SDS011;65329;52.544;4.662;2023-04-15T02:51:14;9.05;;;5.63;;
76495;SDS011;65329;52.544;4.662;2023-04-15T02:53:46;8.65;;;4.50;;
76495;SDS011;65329;52.544;4.662;2023-04-15T02:56:14;9.32;;;5.00;;
76495;SDS011;65329;52.544;4.662;2023-04-15T02:58:43;9.02;;;5.38;;
76495;SDS011;65329;52.544;4.662;2023-04-15T03:01:11;10.90;;;5.22;;
76495;SDS011;65329;52.544;4.662;2023-04-15T03:03:40;6.47;;;5.03;;
76495;SDS011;65329;52.544;4.662;2023-04-15T03:06:07;11.90;;;5.68;;
76495;SDS011;65329;52.544;4.662;2023-04-15T03:08:35;10.60;;;5.80;;
76495;SDS011;65329;52.544;4.662;2023-04-15T03:11:02;9.32;;;6.18;;
76495;SDS011;65329;52.544;4.662;2023-04-15T03:13:32;8.02;;;5.60;;
76495;SDS011;65329;52.544;4.662;2023-04-15T03:16:06;9.82;;;5.50;;
76495;SDS011;65329;52.544;4.662;2023-04-15T03:18:33;8.55;;;5.13;;
76495;SDS011;65329;52.544;4.662;2023-04-15T03:21:02;10.90;;;5.70;;
76495;SDS011;65329;52.544;4.662;2023-04-15T03:23:32;8.63;;;5.22;;
76495;SDS011;65329;52.544;4.662;2023-04-15T03:26:00;6.78;;;5.70;;
76495;SDS011;65329;52.544;4.662;2023-04-15T03:28:29;10.38;;;6.07;;
76495;SDS011;65329;52.544;4.662;2023-04-15T03:30:57;7.78;;;5.72;;
76495;SDS011;65329;52.544;4.662;2023-04-15T03:33:24;8.23;;;5.45;;
76495;SDS011;65329;52.544;4.662;2023-04-15T03:35:52;9.48;;;5.47;;
76495;SDS011;65329;52.544;4.662;2023-04-15T03:38:19;11.68;;;5.82;;
76495;SDS011;65329;52.544;4.662;2023-04-15T03:40:46;7.38;;;5.90;;
76495;SDS011;65329;52.544;4.662;2023-04-15T03:43:13;11.45;;;5.28;;
76495;SDS011;65329;52.544;4.662;2023-04-15T03:45:40;8.82;;;5.57;;
76495;SDS011;65329;52.544;4.662;2023-04-15T03:48:07;10.40;;;6.07;;
76495;SDS011;65329;52.544;4.662;2023-04-15T03:50:43;10.32;;;6.00;;
76495;SDS011;65329;52.544;4.662;2023-04-15T03:53:10;7.45;;;5.40;;
76495;SDS011;65329;52.544;4.662;2023-04-15T03:55:37;8.25;;;5.55;;
76495;SDS011;65329;52.544;4.662;2023-04-15T03:58:04;16.27;;;6.55;;
76495;SDS011;65329;52.544;4.662;2023-04-15T04:00:31;10.70;;;5.82;;
76495;SDS011;65329;52.544;4.662;2023-04-15T04:02:58;10.25;;;5.20;;
76495;SDS011;65329;52.544;4.662;2023-04-15T04:05:26;10.55;;;6.55;;
76495;SDS011;65329;52.544;4.662;2023-04-15T04:07:53;7.57;;;4.55;;
76495;SDS011;65329;52.544;4.662;2023-04-15T04:10:20;10.80;;;5.90;;
76495;SDS011;65329;52.544;4.662;2023-04-15T04:12:47;9.35;;;5.82;;
76495;SDS011;65329;52.544;4.662;2023-04-15T04:15:14;10.85;;;6.53;;
76495;SDS011;65329;52.544;4.662;2023-04-15T04:17:41;10.93;;;6.75;;
76495;SDS011;65329;52.544;4.662;2023-04-15T04:20:08;8.50;;;6.45;;
76495;SDS011;65329;52.544;4.662;2023-04-15T04:22:36;10.23;;;6.72;;
76495;SDS011;65329;52.544;4.662;2023-04-15T04:25:05;9.35;;;6.38;;
76495;SDS011;65329;52.544;4.662;2023-04-15T04:27:34;13.35;;;6.50;;
76495;SDS011;65329;52.544;4.662;2023-04-15T04:30:01;8.35;;;5.20;;
76495;SDS011;65329;52.544;4.662;2023-04-15T04:32:28;11.75;;;7.13;;
76495;SDS011;65329;52.544;4.662;2023-04-15T04:34:55;8.50;;;5.60;;
76495;SDS011;65329;52.544;4.662;2023-04-15T04:37:22;8.18;;;6.25;;
76495;SDS011;65329;52.544;4.662;2023-04-15T04:39:50;11.57;;;6.30;;
76495;SDS011;65329;52.544;4.662;2023-04-15T04:42:17;8.93;;;6.20;;
76495;SDS011;65329;52.544;4.662;2023-04-15T04:44:44;7.13;;;5.35;;
76495;SDS011;65329;52.544;4.662;2023-04-15T04:47:12;9.07;;;5.85;;
76495;SDS011;65329;52.544;4.662;2023-04-15T04:49:39;8.55;;;5.63;;
76495;SDS011;65329;52.544;4.662;2023-04-15T04:52:06;11.27;;;6.10;;
76495;SDS011;65329;52.544;4.662;2023-04-15T04:54:33;11.18;;;6.32;;
76495;SDS011;65329;52.544;4.662;2023-04-15T04:57:00;8.43;;;5.43;;
76495;SDS011;65329;52.544;4.662;2023-04-15T04:59:27;9.23;;;5.80;;
76495;SDS011;65329;52.544;4.662;2023-04-15T05:01:54;8.70;;;5.38;;
76495;SDS011;65329;52.544;4.662;2023-04-15T05:04:22;11.23;;;6.85;;
76495;SDS011;65329;52.544;4.662;2023-04-15T05:06:49;8.00;;;5.63;;
76495;SDS011;65329;52.544;4.662;2023-04-15T05:09:15;9.07;;;5.22;;
76495;SDS011;65329;52.544;4.662;2023-04-15T05:11:42;10.48;;;6.25;;
76495;SDS011;65329;52.544;4.662;2023-04-15T05:14:09;14.52;;;7.22;;
76495;SDS011;65329;52.544;4.662;2023-04-15T05:16:36;9.48;;;6.00;;
76495;SDS011;65329;52.544;4.662;2023-04-15T05:19:03;10.80;;;6.95;;
76495;SDS011;65329;52.544;4.662;2023-04-15T05:21:29;12.38;;;6.72;;
76495;SDS011;65329;52.544;4.662;2023-04-15T05:23:57;13.20;;;6.57;;
76495;SDS011;65329;52.544;4.662;2023-04-15T05:26:24;12.48;;;7.20;;
76495;SDS011;65329;52.544;4.662;2023-04-15T05:28:52;11.23;;;7.28;;
76495;SDS011;65329;52.544;4.662;2023-04-15T05:31:20;11.52;;;6.80;;
76495;SDS011;65329;52.544;4.662;2023-04-15T05:33:47;10.95;;;6.55;;
76495;SDS011;65329;52.544;4.662;2023-04-15T05:36:14;11.63;;;6.22;;
76495;SDS011;65329;52.544;4.662;2023-04-15T05:38:41;13.57;;;7.40;;
76495;SDS011;65329;52.544;4.662;2023-04-15T05:41:08;11.52;;;6.20;;
76495;SDS011;65329;52.544;4.662;2023-04-15T05:43:35;11.05;;;6.78;;
76495;SDS011;65329;52.544;4.662;2023-04-15T05:46:02;13.50;;;6.38;;
76495;SDS011;65329;52.544;4.662;2023-04-15T05:48:29;12.38;;;7.43;;
76495;SDS011;65329;52.544;4.662;2023-04-15T05:50:56;11.35;;;6.72;;
76495;SDS011;65329;52.544;4.662;2023-04-15T05:53:23;12.27;;;7.03;;
76495;SDS011;65329;52.544;4.662;2023-04-15T05:55:50;10.63;;;7.18;;
76495;SDS011;65329;52.544;4.662;2023-04-15T05:58:17;12.90;;;7.22;;
76495;SDS011;65329;52.544;4.662;2023-04-15T06:00:44;10.18;;;5.65;;
76495;SDS011;65329;52.544;4.662;2023-04-15T06:03:11;10.90;;;6.43;;
76495;SDS011;65329;52.544;4.662;2023-04-15T06:05:39;8.48;;;6.22;;
76495;SDS011;65329;52.544;4.662;2023-04-15T06:08:06;10.15;;;5.15;;
76495;SDS011;65329;52.544;4.662;2023-04-15T06:10:35;10.43;;;7.20;;
76495;SDS011;65329;52.544;4.662;2023-04-15T06:13:02;12.75;;;6.90;;
76495;SDS011;65329;52.544;4.662;2023-04-15T06:15:30;13.05;;;5.00;;
76495;SDS011;65329;52.544;4.662;2023-04-15T06:17:57;10.38;;;6.20;;
76495;SDS011;65329;52.544;4.662;2023-04-15T06:20:24;7.50;;;5.53;;
76495;SDS011;65329;52.544;4.662;2023-04-15T06:22:51;9.60;;;6.20;;
76495;SDS011;65329;52.544;4.662;2023-04-15T06:25:18;11.52;;;5.95;;
76495;SDS011;65329;52.544;4.662;2023-04-15T06:27:45;10.32;;;7.32;;
76495;SDS011;65329;52.544;4.662;2023-04-15T06:30:13;12.30;;;7.38;;
76495;SDS011;65329;52.544;4.662;2023-04-15T06:32:40;8.77;;;6.40;;
76495;SDS011;65329;52.544;4.662;2023-04-15T06:35:07;8.63;;;6.40;;
76495;SDS011;65329;52.544;4.662;2023-04-15T06:37:34;10.48;;;6.55;;
76495;SDS011;65329;52.544;4.662;2023-04-15T06:40:02;11.30;;;7.50;;
76495;SDS011;65329;52.544;4.662;2023-04-15T06:42:30;11.13;;;6.95;;
76495;SDS011;65329;52.544;4.662;2023-04-15T06:44:58;9.02;;;6.18;;
76495;SDS011;65329;52.544;4.662;2023-04-15T06:47:25;9.88;;;7.00;;
76495;SDS011;65329;52.544;4.662;2023-04-15T06:49:52;12.20;;;5.97;;
76495;SDS011;65329;52.544;4.662;2023-04-15T06:52:19;9.85;;;7.45;;
76495;SDS011;65329;52.544;4.662;2023-04-15T06:54:46;9.48;;;6.35;;
76495;SDS011;65329;52.544;4.662;2023-04-15T06:57:13;9.57;;;6.28;;
76495;SDS011;65329;52.544;4.662;2023-04-15T06:59:40;13.07;;;7.00;;
76495;SDS011;65329;52.544;4.662;2023-04-15T07:02:09;7.95;;;6.13;;
76495;SDS011;65329;52.544;4.662;2023-04-15T07:04:38;9.25;;;6.45;;
76495;SDS011;65329;52.544;4.662;2023-04-15T07:07:06;8.32;;;6.10;;
76495;SDS011;65329;52.544;4.662;2023-04-15T07:09:33;7.95;;;6.28;;
76495;SDS011;65329;52.544;4.662;2023-04-15T07:12:01;10.48;;;6.30;;
76495;SDS011;65329;52.544;4.662;2023-04-15T07:14:28;9.20;;;6.78;;
76495;SDS011;65329;52.544;4.662;2023-04-15T07:16:55;10.25;;;6.10;;
76495;SDS011;65329;52.544;4.662;2023-04-15T07:19:23;10.85;;;8.05;;
76495;SDS011;65329;52.544;4.662;2023-04-15T07:21:50;10.35;;;6.57;;
76495;SDS011;65329;52.544;4.662;2023-04-15T07:24:17;7.30;;;5.80;;
76495;SDS011;65329;52.544;4.662;2023-04-15T07:26:46;8.05;;;5.28;;
76495;SDS011;65329;52.544;4.662;2023-04-15T07:29:13;7.80;;;5.40;;
76495;SDS011;65329;52.544;4.662;2023-04-15T07:31:40;7.35;;;5.22;;
76495;SDS011;65329;52.544;4.662;2023-04-15T07:34:08;8.15;;;4.75;;
76495;SDS011;65329;52.544;4.662;2023-04-15T07:36:35;5.53;;;4.85;;
76495;SDS011;65329;52.544;4.662;2023-04-15T07:39:02;8.55;;;5.68;;
76495;SDS011;65329;52.544;4.662;2023-04-15T07:41:30;8.98;;;5.03;;
76495;SDS011;65329;52.544;4.662;2023-04-15T07:43:57;6.78;;;4.80;;
76495;SDS011;65329;52.544;4.662;2023-04-15T07:46:24;7.63;;;5.47;;
76495;SDS011;65329;52.544;4.662;2023-04-15T07:48:55;7.47;;;4.90;;
76495;SDS011;65329;52.544;4.662;2023-04-15T07:51:22;7.50;;;5.43;;
76495;SDS011;65329;52.544;4.662;2023-04-15T07:53:50;7.38;;;5.55;;
76495;SDS011;65329;52.544;4.662;2023-04-15T07:56:20;5.25;;;4.28;;
76495;SDS011;65329;52.544;4.662;2023-04-15T07:58:47;4.82;;;4.32;;
76495;SDS011;65329;52.544;4.662;2023-04-15T08:01:17;4.57;;;3.97;;
76495;SDS011;65329;52.544;4.662;2023-04-15T08:03:44;4.68;;;3.88;;
76495;SDS011;65329;52.544;4.662;2023-04-15T08:06:12;5.35;;;4.05;;
76495;SDS011;65329;52.544;4.662;2023-04-15T08:08:40;4.68;;;3.33;;
76495;SDS011;65329;52.544;4.662;2023-04-15T08:11:08;5.20;;;2.97;;
76495;SDS011;65329;52.544;4.662;2023-04-15T08:13:35;5.50;;;3.88;;
76495;SDS011;65329;52.544;4.662;2023-04-15T08:16:24;6.15;;;4.32;;
76495;SDS011;65329;52.544;4.662;2023-04-15T08:18:55;5.43;;;4.32;;
76495;SDS011;65329;52.544;4.662;2023-04-15T08:21:22;4.80;;;4.03;;
76495;SDS011;65329;52.544;4.662;2023-04-15T08:23:53;5.13;;;4.00;;
76495;SDS011;65329;52.544;4.662;2023-04-15T08:26:20;4.95;;;4.30;;
76495;SDS011;65329;52.544;4.662;2023-04-15T08:28:48;4.63;;;3.55;;
76495;SDS011;65329;52.544;4.662;2023-04-15T08:31:18;5.93;;;3.63;;
76495;SDS011;65329;52.544;4.662;2023-04-15T08:33:45;6.28;;;4.13;;
76495;SDS011;65329;52.544;4.662;2023-04-15T08:36:13;5.38;;;3.33;;
76495;SDS011;65329;52.544;4.662;2023-04-15T08:38:45;5.82;;;4.43;;
76495;SDS011;65329;52.544;4.662;2023-04-15T08:41:19;4.63;;;3.60;;
76495;SDS011;65329;52.544;4.662;2023-04-15T08:43:56;4.00;;;3.58;;
76495;SDS011;65329;52.544;4.662;2023-04-15T08:46:27;5.22;;;3.75;;
76495;SDS011;65329;52.544;4.662;2023-04-15T08:48:56;4.95;;;3.83;;
76495;SDS011;65329;52.544;4.662;2023-04-15T08:51:23;5.68;;;3.70;;
76495;SDS011;65329;52.544;4.662;2023-04-15T08:53:51;4.20;;;3.72;;
76495;SDS011;65329;52.544;4.662;2023-04-15T08:56:18;3.60;;;3.30;;
76495;SDS011;65329;52.544;4.662;2023-04-15T08:58:49;5.50;;;3.72;;
76495;SDS011;65329;52.544;4.662;2023-04-15T09:01:16;4.93;;;3.20;;
76495;SDS011;65329;52.544;4.662;2023-04-15T09:03:44;3.33;;;3.00;;
76495;SDS011;65329;52.544;4.662;2023-04-15T09:06:13;4.22;;;3.00;;
76495;SDS011;65329;52.544;4.662;2023-04-15T09:08:44;3.88;;;3.17;;
76495;SDS011;65329;52.544;4.662;2023-04-15T09:11:12;5.28;;;3.30;;
76495;SDS011;65329;52.544;4.662;2023-04-15T09:13:39;6.18;;;2.60;;
76495;SDS011;65329;52.544;4.662;2023-04-15T09:16:06;5.65;;;2.72;;
76495;SDS011;65329;52.544;4.662;2023-04-15T09:18:34;4.75;;;2.80;;
76495;SDS011;65329;52.544;4.662;2023-04-15T09:21:05;5.22;;;2.58;;
76495;SDS011;65329;52.544;4.662;2023-04-15T09:23:34;3.88;;;2.72;;
76495;SDS011;65329;52.544;4.662;2023-04-15T09:26:03;3.83;;;2.35;;
76495;SDS011;65329;52.544;4.662;2023-04-15T09:28:31;4.85;;;2.97;;
76495;SDS011;65329;52.544;4.662;2023-04-15T09:31:03;5.30;;;2.78;;
76495;SDS011;65329;52.544;4.662;2023-04-15T09:33:31;4.38;;;2.75;;
76495;SDS011;65329;52.544;4.662;2023-04-15T09:36:07;3.55;;;2.72;;
76495;SDS011;65329;52.544;4.662;2023-04-15T09:38:36;3.47;;;2.40;;
76495;SDS011;65329;52.544;4.662;2023-04-15T09:41:26;4.13;;;2.05;;
76495;SDS011;65329;52.544;4.662;2023-04-15T09:44:02;4.60;;;2.28;;
76495;SDS011;65329;52.544;4.662;2023-04-15T09:49:09;4.72;;;3.13;;
76495;SDS011;65329;52.544;4.662;2023-04-15T09:51:37;3.85;;;2.30;;
76495;SDS011;65329;52.544;4.662;2023-04-15T09:54:04;4.72;;;2.38;;
76495;SDS011;65329;52.544;4.662;2023-04-15T09:56:37;6.03;;;2.83;;
76495;SDS011;65329;52.544;4.662;2023-04-15T09:59:10;2.80;;;2.50;;
76495;SDS011;65329;52.544;4.662;2023-04-15T10:01:38;3.53;;;2.47;;
76495;SDS011;65329;52.544;4.662;2023-04-15T10:04:07;4.10;;;2.95;;
76495;SDS011;65329;52.544;4.662;2023-04-15T10:06:35;3.38;;;2.28;;
76495;SDS011;65329;52.544;4.662;2023-04-15T10:09:03;4.43;;;2.97;;
76495;SDS011;65329;52.544;4.662;2023-04-15T10:11:32;6.10;;;2.60;;
76495;SDS011;65329;52.544;4.662;2023-04-15T10:14:00;3.58;;;2.58;;
76495;SDS011;65329;52.544;4.662;2023-04-15T10:16:29;4.57;;;2.78;;
76495;SDS011;65329;52.544;4.662;2023-04-15T10:19:00;4.28;;;2.80;;
76495;SDS011;65329;52.544;4.662;2023-04-15T10:21:29;4.20;;;2.90;;
76495;SDS011;65329;52.544;4.662;2023-04-15T10:23:57;4.05;;;2.75;;
76495;SDS011;65329;52.544;4.662;2023-04-15T10:26:28;3.40;;;2.70;;
76495;SDS011;65329;52.544;4.662;2023-04-15T10:28:56;4.88;;;2.63;;
76495;SDS011;65329;52.544;4.662;2023-04-15T10:31:25;2.97;;;2.45;;
76495;SDS011;65329;52.544;4.662;2023-04-15T10:33:53;4.82;;;3.20;;
76495;SDS011;65329;52.544;4.662;2023-04-15T10:36:22;6.65;;;3.45;;
76495;SDS011;65329;52.544;4.662;2023-04-15T10:38:49;5.35;;;3.25;;
76495;SDS011;65329;52.544;4.662;2023-04-15T10:41:26;4.82;;;2.80;;
76495;SDS011;65329;52.544;4.662;2023-04-15T10:44:03;4.07;;;2.92;;
76495;SDS011;65329;52.544;4.662;2023-04-15T10:46:38;4.53;;;2.88;;
76495;SDS011;65329;52.544;4.662;2023-04-15T10:51:42;5.32;;;2.63;;
76495;SDS011;65329;52.544;4.662;2023-04-15T10:59:28;4.60;;;2.95;;
76495;SDS011;65329;52.544;4.662;2023-04-15T11:02:00;5.07;;;2.80;;
76495;SDS011;65329;52.544;4.662;2023-04-15T11:07:35;5.30;;;2.13;;
76495;SDS011;65329;52.544;4.662;2023-04-15T11:12:49;2.53;;;1.40;;
76495;SDS011;65329;52.544;4.662;2023-04-15T11:18:18;2.78;;;1.30;;
76495;SDS011;65329;52.544;4.662;2023-04-15T11:23:18;5.28;;;2.00;;
76495;SDS011;65329;52.544;4.662;2023-04-15T11:25:46;2.28;;;1.50;;
76495;SDS011;65329;52.544;4.662;2023-04-15T11:28:19;6.00;;;2.28;;
76495;SDS011;65329;52.544;4.662;2023-04-15T11:30:46;3.83;;;2.10;;
76495;SDS011;65329;52.544;4.662;2023-04-15T11:33:13;3.80;;;1.80;;
76495;SDS011;65329;52.544;4.662;2023-04-15T11:35:41;3.92;;;1.90;;
76495;SDS011;65329;52.544;4.662;2023-04-15T11:38:12;2.00;;;1.70;;
76495;SDS011;65329;52.544;4.662;2023-04-15T11:40:42;1.92;;;1.58;;
76495;SDS011;65329;52.544;4.662;2023-04-15T11:43:13;2.70;;;1.50;;
76495;SDS011;65329;52.544;4.662;2023-04-15T11:50:55;3.25;;;1.88;;
76495;SDS011;65329;52.544;4.662;2023-04-15T11:53:23;4.82;;;2.20;;
76495;SDS011;65329;52.544;4.662;2023-04-15T11:56:21;4.50;;;2.33;;
76495;SDS011;65329;52.544;4.662;2023-04-15T11:58:54;3.83;;;1.60;;
76495;SDS011;65329;52.544;4.662;2023-04-15T12:01:36;4.88;;;2.45;;
76495;SDS011;65329;52.544;4.662;2023-04-15T12:04:13;4.05;;;1.90;;
76495;SDS011;65329;52.544;4.662;2023-04-15T12:06:44;3.45;;;1.42;;
76495;SDS011;65329;52.544;4.662;2023-04-15T12:09:12;4.35;;;2.17;;
76495;SDS011;65329;52.544;4.662;2023-04-15T12:11:44;3.00;;;1.65;;
76495;SDS011;65329;52.544;4.662;2023-04-15T12:14:25;8.27;;;2.30;;
76495;SDS011;65329;52.544;4.662;2023-04-15T12:19:31;3.38;;;1.98;;
76495;SDS011;65329;52.544;4.662;2023-04-15T12:22:07;5.22;;;2.38;;
76495;SDS011;65329;52.544;4.662;2023-04-15T12:24:36;6.15;;;2.97;;
76495;SDS011;65329;52.544;4.662;2023-04-15T12:27:06;4.13;;;2.38;;
76495;SDS011;65329;52.544;4.662;2023-04-15T12:29:37;2.63;;;1.77;;
76495;SDS011;65329;52.544;4.662;2023-04-15T12:34:35;2.30;;;1.48;;
76495;SDS011;65329;52.544;4.662;2023-04-15T12:37:05;3.42;;;2.30;;
76495;SDS011;65329;52.544;4.662;2023-04-15T12:39:37;4.18;;;1.73;;
76495;SDS011;65329;52.544;4.662;2023-04-15T12:42:06;4.47;;;2.13;;
76495;SDS011;65329;52.544;4.662;2023-04-15T12:44:34;3.75;;;1.90;;
76495;SDS011;65329;52.544;4.662;2023-04-15T12:47:02;3.35;;;1.80;;
76495;SDS011;65329;52.544;4.662;2023-04-15T12:49:30;2.70;;;2.15;;
76495;SDS011;65329;52.544;4.662;2023-04-15T12:51:58;3.38;;;1.75;;
76495;SDS011;65329;52.544;4.662;2023-04-15T12:54:27;6.97;;;2.33;;
76495;SDS011;65329;52.544;4.662;2023-04-15T12:56:56;3.42;;;1.63;;
76495;SDS011;65329;52.544;4.662;2023-04-15T12:59:24;2.30;;;1.30;;
76495;SDS011;65329;52.544;4.662;2023-04-15T13:01:51;2.95;;;1.83;;
76495;SDS011;65329;52.544;4.662;2023-04-15T13:04:20;7.18;;;2.25;;
76495;SDS011;65329;52.544;4.662;2023-04-15T13:06:47;7.95;;;2.90;;
76495;SDS011;65329;52.544;4.662;2023-04-15T13:09:15;6.15;;;2.85;;
76495;SDS011;65329;52.544;4.662;2023-04-15T13:11:42;6.53;;;2.10;;
76495;SDS011;65329;52.544;4.662;2023-04-15T13:14:09;5.13;;;2.53;;
76495;SDS011;65329;52.544;4.662;2023-04-15T13:16:39;6.63;;;2.63;;
76495;SDS011;65329;52.544;4.662;2023-04-15T13:19:07;5.35;;;2.33;;
76495;SDS011;65329;52.544;4.662;2023-04-15T13:21:34;6.43;;;3.40;;
76495;SDS011;65329;52.544;4.662;2023-04-15T13:24:02;7.45;;;2.50;;
76495;SDS011;65329;52.544;4.662;2023-04-15T13:26:30;5.85;;;2.60;;
76495;SDS011;65329;52.544;4.662;2023-04-15T13:28:58;13.32;;;3.35;;
76495;SDS011;65329;52.544;4.662;2023-04-15T13:31:25;7.45;;;2.50;;
76495;SDS011;65329;52.544;4.662;2023-04-15T13:33:52;7.30;;;2.92;;
76495;SDS011;65329;52.544;4.662;2023-04-15T13:36:19;9.55;;;3.38;;
76495;SDS011;65329;52.544;4.662;2023-04-15T13:38:46;9.27;;;3.65;;
76495;SDS011;65329;52.544;4.662;2023-04-15T13:41:16;9.02;;;4.10;;
76495;SDS011;65329;52.544;4.662;2023-04-15T13:43:43;6.88;;;3.53;;
76495;SDS011;65329;52.544;4.662;2023-04-15T13:46:11;4.22;;;2.60;;
76495;SDS011;65329;52.544;4.662;2023-04-15T13:48:38;9.93;;;3.38;;
76495;SDS011;65329;52.544;4.662;2023-04-15T13:51:05;7.10;;;2.85;;
76495;SDS011;65329;52.544;4.662;2023-04-15T13:53:32;7.80;;;2.97;;
76495;SDS011;65329;52.544;4.662;2023-04-15T13:56:07;5.55;;;2.90;;
76495;SDS011;65329;52.544;4.662;2023-04-15T13:58:35;4.90;;;2.80;;
76495;SDS011;65329;52.544;4.662;2023-04-15T14:01:03;6.18;;;3.17;;
76495;SDS011;65329;52.544;4.662;2023-04-15T14:03:35;7.07;;;2.63;;
76495;SDS011;65329;52.544;4.662;2023-04-15T14:06:04;4.43;;;2.70;;
76495;SDS011;65329;52.544;4.662;2023-04-15T14:08:31;4.70;;;2.30;;
76495;SDS011;65329;52.544;4.662;2023-04-15T14:10:58;6.43;;;2.53;;
76495;SDS011;65329;52.544;4.662;2023-04-15T14:13:25;4.63;;;2.33;;
76495;SDS011;65329;52.544;4.662;2023-04-15T14:15:52;4.55;;;1.90;;
76495;SDS011;65329;52.544;4.662;2023-04-15T14:18:19;6.45;;;2.35;;
76495;SDS011;65329;52.544;4.662;2023-04-15T14:20:46;5.53;;;2.50;;
76495;SDS011;65329;52.544;4.662;2023-04-15T14:23:13;3.80;;;2.13;;
76495;SDS011;65329;52.544;4.662;2023-04-15T14:25:41;6.80;;;2.22;;
76495;SDS011;65329;52.544;4.662;2023-04-15T14:28:08;6.88;;;2.05;;
76495;SDS011;65329;52.544;4.662;2023-04-15T14:30:35;8.93;;;3.20;;
76495;SDS011;65329;52.544;4.662;2023-04-15T14:33:02;4.88;;;1.60;;
76495;SDS011;65329;52.544;4.662;2023-04-15T14:35:30;5.80;;;2.17;;
76495;SDS011;65329;52.544;4.662;2023-04-15T14:37:57;5.18;;;2.20;;
76495;SDS011;65329;52.544;4.662;2023-04-15T14:40:24;4.93;;;1.90;;
76495;SDS011;65329;52.544;4.662;2023-04-15T14:42:51;10.45;;;2.65;;
76495;SDS011;65329;52.544;4.662;2023-04-15T14:45:17;6.70;;;2.45;;
76495;SDS011;65329;52.544;4.662;2023-04-15T14:47:45;6.72;;;2.47;;
76495;SDS011;65329;52.544;4.662;2023-04-15T14:50:12;3.03;;;2.28;;
76495;SDS011;65329;52.544;4.662;2023-04-15T14:52:39;5.50;;;2.00;;
76495;SDS011;65329;52.544;4.662;2023-04-15T14:55:09;5.28;;;2.05;;
76495;SDS011;65329;52.544;4.662;2023-04-15T14:57:38;4.22;;;2.17;;
76495;SDS011;65329;52.544;4.662;2023-04-15T15:00:06;4.28;;;1.90;;
76495;SDS011;65329;52.544;4.662;2023-04-15T15:02:35;7.47;;;2.05;;
76495;SDS011;65329;52.544;4.662;2023-04-15T15:05:06;4.93;;;1.65;;
76495;SDS011;65329;52.544;4.662;2023-04-15T15:07:34;6.90;;;1.77;;
76495;SDS011;65329;52.544;4.662;2023-04-15T15:10:03;7.65;;;1.98;;
76495;SDS011;65329;52.544;4.662;2023-04-15T15:12:31;5.90;;;1.60;;
76495;SDS011;65329;52.544;4.662;2023-04-15T15:14:58;5.70;;;1.73;;
76495;SDS011;65329;52.544;4.662;2023-04-15T15:17:27;6.63;;;2.05;;
76495;SDS011;65329;52.544;4.662;2023-04-15T15:19:55;6.55;;;1.50;;
76495;SDS011;65329;52.544;4.662;2023-04-15T15:22:22;11.95;;;2.83;;
76495;SDS011;65329;52.544;4.662;2023-04-15T15:24:49;5.90;;;1.73;;